Time;durP1;ratioP1;P1;durP2;ratioP2;P2;SDS_P1;SDS_P2;PMS_P1;PMS_P2;Temp;Humidity;BMP_temperature;BMP_pressure;BME280_temperature;BME280_humidity;BME280_pressure;Samples;Min_cycle;Max_cycle;Signal;HPM_P1;HPM_P2
2021/12/19 18:00:32;;;;;;;93.50;48.75;;;;;;;;;;5068079;27;20650;-65
2021/12/19 18:03:00;;;;;;;95.80;46.60;;;;;;;;;;5067566;28;20551;-65
2021/12/19 18:05:26;;;;;;;92.82;46.70;;;;;;;;;;5067719;28;20074;-65
2021/12/19 18:07:52;;;;;;;88.40;40.35;;;;;;;;;;5068446;28;20052;-65
2021/12/19 18:10:19;;;;;;;66.88;29.98;;;;;;;;;;5057599;28;20025;-65
2021/12/19 18:12:45;;;;;;;65.50;28.58;;;;;;;;;;5047411;28;20448;-65
2021/12/19 18:15:12;;;;;;;70.80;30.90;;;;;;;;;;5047582;28;20025;-66
2021/12/19 18:17:39;;;;;;;86.03;40.92;;;;;;;;;;5047696;28;20096;-65
2021/12/19 18:20:05;;;;;;;71.35;35.03;;;;;;;;;;5047171;28;20450;-67
2021/12/19 18:22:31;;;;;;;58.20;28.83;;;;;;;;;;5046767;28;20443;-66
2021/12/19 18:24:58;;;;;;;53.53;24.23;;;;;;;;;;5046984;28;20017;-66
2021/12/19 18:27:24;;;;;;;46.78;23.50;;;;;;;;;;5064722;28;20479;-66
2021/12/19 18:29:50;;;;;;;65.10;33.72;;;;;;;;;;5046781;28;20025;-67
2021/12/19 18:32:16;;;;;;;59.95;29.05;;;;;;;;;;5057866;28;20020;-67
2021/12/19 18:34:46;;;;;;;56.72;28.10;;;;;;;;;;5057430;28;20032;-66
2021/12/19 18:37:17;;;;;;;66.95;29.98;;;;;;;;;;5057263;28;20025;-67
2021/12/19 18:39:48;;;;;;;93.45;28.27;;;;;;;;;;5048623;28;20099;-67
2021/12/19 18:42:21;;;;;;;87.65;25.52;;;;;;;;;;5046434;28;20029;-66
2021/12/19 18:44:54;;;;;;;103.43;29.70;;;;;;;;;;5045464;28;20067;-66
2021/12/19 18:50:17;;;;;;;133.93;47.70;;;;;;;;;;5045068;28;20033;-67
2021/12/19 18:52:57;;;;;;;142.40;47.22;;;;;;;;;;5044279;28;20487;-66
2021/12/19 18:57:58;;;;;;;93.90;26.95;;;;;;;;;;5052079;28;20029;-68
2021/12/19 19:00:44;;;;;;;106.43;26.30;;;;;;;;;;5043562;28;20072;-68
2021/12/19 19:08:49;;;;;;;94.80;26.42;;;;;;;;;;5060983;28;20056;-68
2021/12/19 19:11:15;;;;;;;119.57;31.25;;;;;;;;;;5053639;28;20086;-67
2021/12/19 19:13:41;;;;;;;131.82;28.92;;;;;;;;;;5048476;28;20027;-68
2021/12/19 19:16:07;;;;;;;90.90;25.92;;;;;;;;;;5051821;28;20456;-68
2021/12/19 19:18:33;;;;;;;122.45;27.13;;;;;;;;;;5052190;28;20032;-68
2021/12/19 19:20:59;;;;;;;119.63;27.00;;;;;;;;;;5051302;28;20030;-68
2021/12/19 19:23:25;;;;;;;165.70;29.60;;;;;;;;;;5052217;28;20017;-68
2021/12/19 19:25:51;;;;;;;181.27;28.73;;;;;;;;;;5048552;28;20104;-68
2021/12/19 19:28:17;;;;;;;167.35;30.92;;;;;;;;;;5049474;28;20212;-68
2021/12/19 19:30:43;;;;;;;140.07;28.48;;;;;;;;;;5045605;28;20025;-67
2021/12/19 19:33:10;;;;;;;120.05;34.78;;;;;;;;;;5033975;28;20024;-67
2021/12/19 19:35:37;;;;;;;140.50;29.92;;;;;;;;;;5031964;28;20028;-68
2021/12/19 19:38:10;;;;;;;155.50;38.55;;;;;;;;;;5032424;28;20036;-68
2021/12/19 19:41:05;;;;;;;119.07;30.90;;;;;;;;;;5034870;28;20399;-67
2021/12/19 19:48:54;;;;;;;140.43;23.67;;;;;;;;;;5040140;28;20037;-67
2021/12/19 19:51:21;;;;;;;113.90;24.23;;;;;;;;;;5031700;28;20029;-68
2021/12/19 19:53:47;;;;;;;104.18;22.23;;;;;;;;;;5049902;28;20177;-68
2021/12/19 19:56:13;;;;;;;88.75;21.58;;;;;;;;;;5051847;28;20044;-68
2021/12/19 19:58:39;;;;;;;109.65;26.30;;;;;;;;;;5051175;28;20084;-68
2021/12/19 20:01:05;;;;;;;151.75;37.25;;;;;;;;;;5049938;28;20017;-68
2021/12/19 20:03:31;;;;;;;131.68;32.13;;;;;;;;;;5051459;28;20025;-68
2021/12/19 20:05:57;;;;;;;159.38;38.95;;;;;;;;;;5046319;28;20017;-68
2021/12/19 20:08:25;;;;;;;174.52;34.83;;;;;;;;;;5047271;28;20032;-68
2021/12/19 20:10:54;;;;;;;247.30;44.53;;;;;;;;;;5050178;28;20036;-68
2021/12/19 20:13:21;;;;;;;199.32;38.28;;;;;;;;;;5051084;28;20108;-68
2021/12/19 20:15:47;;;;;;;174.30;46.40;;;;;;;;;;5051582;28;20430;-68
2021/12/19 20:18:13;;;;;;;186.77;50.47;;;;;;;;;;5050994;28;20025;-66
2021/12/19 20:20:39;;;;;;;215.10;44.72;;;;;;;;;;5049484;28;20021;-66
2021/12/19 20:23:06;;;;;;;328.80;46.60;;;;;;;;;;5038266;28;20025;-66
2021/12/19 20:25:32;;;;;;;148.18;36.55;;;;;;;;;;5031077;28;20031;-67
2021/12/19 20:27:58;;;;;;;348.13;45.60;;;;;;;;;;5032081;28;20036;-66
2021/12/19 20:30:24;;;;;;;341.13;50.25;;;;;;;;;;5030324;28;20103;-66
2021/12/19 20:32:53;;;;;;;267.85;41.80;;;;;;;;;;5031359;28;20104;-68
2021/12/19 20:35:19;;;;;;;220.57;36.53;;;;;;;;;;5031219;28;20075;-67
2021/12/19 20:37:45;;;;;;;169.57;38.53;;;;;;;;;;5039227;28;20020;-68
2021/12/19 20:40:11;;;;;;;317.42;47.67;;;;;;;;;;5051130;28;20040;-67
2021/12/19 20:42:37;;;;;;;173.35;37.67;;;;;;;;;;5050909;28;20412;-67
2021/12/19 20:45:07;;;;;;;177.02;42.00;;;;;;;;;;5049122;28;20036;-67
2021/12/19 20:47:34;;;;;;;208.68;39.38;;;;;;;;;;5050092;28;20044;-67
2021/12/19 20:50:01;;;;;;;170.80;37.20;;;;;;;;;;5050651;28;20033;-67
2021/12/19 20:52:27;;;;;;;159.73;38.20;;;;;;;;;;5049058;28;20017;-67
2021/12/19 20:54:53;;;;;;;166.60;37.38;;;;;;;;;;5030903;28;20384;-66
2021/12/19 20:57:19;;;;;;;138.60;40.25;;;;;;;;;;5039015;28;20100;-66
2021/12/19 20:59:45;;;;;;;229.45;41.67;;;;;;;;;;5045142;28;20053;-66
2021/12/19 21:02:13;;;;;;;144.52;38.53;;;;;;;;;;5036234;28;20408;-66
2021/12/19 21:04:39;;;;;;;105.10;33.28;;;;;;;;;;5030731;28;20498;-66
2021/12/19 21:07:05;;;;;;;118.35;29.25;;;;;;;;;;5030160;28;20025;-66
2021/12/19 21:09:31;;;;;;;109.72;28.33;;;;;;;;;;5030096;28;20088;-65
2021/12/19 21:12:00;;;;;;;98.57;28.13;;;;;;;;;;5030907;28;20108;-67
2021/12/19 21:19:57;;;;;;;73.13;26.58;;;;;;;;;;5030609;28;20059;-67
2021/12/19 21:22:23;;;;;;;72.53;28.40;;;;;;;;;;5036441;28;20341;-66
2021/12/19 21:24:49;;;;;;;73.95;28.63;;;;;;;;;;5031074;28;20421;-66
2021/12/19 21:27:16;;;;;;;59.75;26.27;;;;;;;;;;5018454;28;20120;-68
2021/12/19 21:29:43;;;;;;;73.55;27.33;;;;;;;;;;5029716;28;20029;-68
2021/12/19 21:32:09;;;;;;;84.68;30.85;;;;;;;;;;5031379;28;20379;-68
2021/12/19 21:34:46;;;;;;;78.28;27.55;;;;;;;;;;5033739;28;20029;-68
2021/12/19 21:40:01;;;;;;;62.80;21.17;;;;;;;;;;5035852;28;20120;-67
2021/12/19 21:42:27;;;;;;;72.63;22.60;;;;;;;;;;5030318;28;20029;-68
2021/12/19 21:44:53;;;;;;;91.40;22.70;;;;;;;;;;5030183;28;20058;-67
2021/12/19 21:47:19;;;;;;;160.73;26.90;;;;;;;;;;5028580;28;20436;-68
2021/12/19 21:49:45;;;;;;;146.50;22.90;;;;;;;;;;5029067;28;20487;-68
2021/12/19 21:52:11;;;;;;;171.43;23.92;;;;;;;;;;5020856;28;20041;-68
2021/12/19 21:54:37;;;;;;;110.63;21.63;;;;;;;;;;5020585;28;20022;-68
2021/12/19 21:57:03;;;;;;;148.73;25.52;;;;;;;;;;5041856;28;20491;-68
2021/12/19 21:59:30;;;;;;;82.75;20.63;;;;;;;;;;5009624;28;20392;-67
2021/12/19 22:01:56;;;;;;;77.53;21.15;;;;;;;;;;5014707;28;20757;-67
2021/12/19 22:04:22;;;;;;;49.88;19.15;;;;;;;;;;5022234;28;20033;-67
2021/12/19 22:06:48;;;;;;;52.88;19.35;;;;;;;;;;5028843;28;20026;-68
2021/12/19 22:09:15;;;;;;;60.55;20.35;;;;;;;;;;5029668;28;20034;-67
2021/12/19 22:11:52;;;;;;;55.17;19.60;;;;;;;;;;5029736;28;20387;-67
2021/12/19 22:17:02;;;;;;;47.55;17.85;;;;;;;;;;5024161;28;20116;-68
2021/12/19 22:19:29;;;;;;;56.20;18.92;;;;;;;;;;5035255;28;20040;-68
2021/12/19 22:21:55;;;;;;;43.78;18.35;;;;;;;;;;5019613;28;20029;-68
2021/12/19 22:24:21;;;;;;;49.63;17.70;;;;;;;;;;5027878;28;20036;-68
2021/12/19 22:26:47;;;;;;;39.58;17.58;;;;;;;;;;5029397;28;20037;-68
2021/12/19 22:29:13;;;;;;;46.75;17.88;;;;;;;;;;5043421;28;20372;-68
2021/12/19 22:31:39;;;;;;;45.10;17.40;;;;;;;;;;5029054;28;20040;-68
2021/12/19 22:34:05;;;;;;;48.05;18.08;;;;;;;;;;5029251;28;20022;-68
2021/12/19 22:36:31;;;;;;;37.78;16.73;;;;;;;;;;5027660;28;20018;-68
2021/12/19 22:38:58;;;;;;;45.05;18.77;;;;;;;;;;5024468;28;20029;-68
2021/12/19 22:41:24;;;;;;;44.30;19.95;;;;;;;;;;5023497;28;20496;-70
2021/12/19 22:43:50;;;;;;;44.10;20.15;;;;;;;;;;5027427;28;20064;-69
2021/12/19 22:46:16;;;;;;;43.88;18.55;;;;;;;;;;5029726;28;20026;-68
2021/12/19 22:48:42;;;;;;;42.13;17.77;;;;;;;;;;5033192;28;20033;-68
2021/12/19 22:51:09;;;;;;;34.67;16.40;;;;;;;;;;5030613;28;20056;-68
2021/12/19 22:53:35;;;;;;;42.30;18.38;;;;;;;;;;5026361;28;20108;-68
2021/12/19 22:56:01;;;;;;;48.40;20.02;;;;;;;;;;5025573;28;20391;-67
2021/12/19 22:58:27;;;;;;;49.85;21.00;;;;;;;;;;5031656;28;20042;-68
2021/12/19 23:01:00;;;;;;;44.13;20.05;;;;;;;;;;5029466;28;20392;-68
2021/12/19 23:03:26;;;;;;;45.75;20.45;;;;;;;;;;5023051;28;20392;-68
2021/12/19 23:05:52;;;;;;;49.38;21.17;;;;;;;;;;5051958;28;20107;-68
2021/12/19 23:08:19;;;;;;;37.28;17.48;;;;;;;;;;5038361;28;20049;-68
2021/12/19 23:10:49;;;;;;;44.10;18.95;;;;;;;;;;5027334;28;20029;-68
2021/12/19 23:13:23;;;;;;;38.50;17.10;;;;;;;;;;5011670;28;20516;-68
2021/12/19 23:15:52;;;;;;;37.70;15.90;;;;;;;;;;5014001;28;20026;-68
